Time;durP1;ratioP1;P1;durP2;ratioP2;P2;SDS_P1;SDS_P2;PMS_P1;PMS_P2;Temp;Humidity;BMP_temperature;BMP_pressure;BME280_temperature;BME280_humidity;BME280_pressure;Samples;Min_cycle;Max_cycle;Signal;HPM_P1;HPM_P2
2023/07/27 00:00:58;;;;;;;;;;;;;;;12.55;55.35;100438.34;104975;1291;62077;-87
2023/07/27 00:03:46;;;;;;;;;;;;;;;12.53;55.44;100439.09;105055;1294;62038;-87
2023/07/27 00:06:40;;;;;;;;;;;;;;;12.51;55.49;100437.27;105005;1291;74082;-87
2023/07/27 00:09:27;;;;;;;;;;;;;;;12.45;55.51;100432.77;104978;1292;68381;-87
2023/07/27 00:12:13;;;;;;;;;;;;;;;12.42;55.68;100434.40;104852;1291;71253;-86
2023/07/27 00:15:01;;;;;;;;;;;;;;;12.41;55.69;100433.21;105079;1291;61930;-86
2023/07/27 00:17:48;;;;;;;;;;;;;;;12.40;55.73;100430.66;104824;1291;167129;-86
2023/07/27 00:20:35;;;;;;;;;;;;;;;12.40;55.76;100433.60;104902;1291;74283;-86
2023/07/27 00:23:40;;;;;;;;;;;;;;;12.37;55.86;100438.52;104872;1291;68077;-87
2023/07/27 00:26:29;;;;;;;;;;;;;;;12.34;55.79;100435.83;105105;1291;71285;-87
2023/07/27 00:29:36;;;;;;;;;;;;;;;12.30;55.86;100437.32;105027;1291;62115;-87
2023/07/27 00:32:23;;;;;;;;;;;;;;;12.23;55.87;100437.65;105042;1291;59536;-87
2023/07/27 00:35:26;;;;;;;;;;;;;;;12.20;55.92;100436.70;104937;1291;73004;-87
2023/07/27 00:38:13;;;;;;;;;;;;;;;12.19;55.91;100441.20;104962;1291;67663;-87
2023/07/27 00:41:09;;;;;;;;;;;;;;;12.16;56.02;100439.73;105100;1291;70601;-87
2023/07/27 00:44:19;;;;;;;;;;;;;;;12.13;56.02;100442.23;105155;1291;60105;-87
2023/07/27 00:47:14;;;;;;;;;;;;;;;12.11;56.05;100438.83;105153;1291;59934;-87
2023/07/27 00:50:23;;;;;;;;;;;;;;;12.10;56.08;100441.81;104971;1293;75352;-87
2023/07/27 00:53:11;;;;;;;;;;;;;;;12.07;56.15;100443.77;105061;1291;67188;-86
2023/07/27 00:55:59;;;;;;;;;;;;;;;12.01;56.11;100441.52;104878;1291;72347;-87
2023/07/27 00:58:47;;;;;;;;;;;;;;;11.98;56.16;100441.73;104887;1291;62008;-86
2023/07/27 01:01:34;;;;;;;;;;;;;;;11.97;56.11;100439.54;104884;1291;62077;-87
2023/07/27 01:04:21;;;;;;;;;;;;;;;11.89;56.25;100440.77;104885;1291;74182;-87
2023/07/27 01:07:27;;;;;;;;;;;;;;;11.85;56.35;100431.22;104881;1295;67229;-86
2023/07/27 01:10:34;;;;;;;;;;;;;;;11.79;56.54;100433.42;104941;1294;71639;-86
2023/07/27 01:13:29;;;;;;;;;;;;;;;11.77;56.60;100432.77;105046;1291;62021;-87
2023/07/27 01:16:19;;;;;;;;;;;;;;;11.76;56.56;100429.49;104916;1294;62048;-87
2023/07/27 01:19:12;;;;;;;;;;;;;;;11.67;56.47;100425.56;104931;1291;74565;-87
2023/07/27 01:22:37;;;;;;;;;;;;;;;11.57;56.62;100423.20;105034;1291;67632;-86
2023/07/27 01:25:56;;;;;;;;;;;;;;;11.45;56.74;100430.89;105100;1295;71345;-87
2023/07/27 01:28:43;;;;;;;;;;;;;;;11.41;56.73;100421.69;104363;1299;60916;-87
2023/07/27 01:31:50;;;;;;;;;;;;;;;11.36;56.92;100420.60;104406;1299;62093;-87
2023/07/27 01:34:57;;;;;;;;;;;;;;;11.37;57.00;100421.11;104408;1300;74713;-87
2023/07/27 01:38:03;;;;;;;;;;;;;;;11.40;57.02;100420.34;104378;1299;67313;-87
2023/07/27 01:41:29;;;;;;;;;;;;;;;11.44;57.03;100419.20;104410;1299;72172;-87
2023/07/27 01:44:55;;;;;;;;;;;;;;;11.48;57.03;100414.80;104399;1299;61863;-87
2023/07/27 01:48:01;;;;;;;;;;;;;;;11.49;56.94;100413.38;104397;1300;61919;-87
2023/07/27 01:51:09;;;;;;;;;;;;;;;11.50;56.94;100411.29;104383;1299;73221;-87
2023/07/27 01:54:30;;;;;;;;;;;;;;;11.48;56.97;100408.56;104393;1300;69784;-87
2023/07/27 01:57:37;;;;;;;;;;;;;;;11.47;56.99;100412.73;104393;1299;71290;-87
2023/07/27 02:00:26;;;;;;;;;;;;;;;11.35;57.03;100410.08;104367;1299;62010;-87
2023/07/27 02:03:32;;;;;;;;;;;;;;;11.32;57.10;100411.38;104405;1303;61969;-87
2023/07/27 02:06:38;;;;;;;;;;;;;;;11.32;57.15;100415.00;105048;1292;75717;-87
2023/07/27 02:09:45;;;;;;;;;;;;;;;11.32;57.18;100414.48;104908;1291;68117;-87
2023/07/27 02:12:52;;;;;;;;;;;;;;;11.28;57.19;100413.70;105147;1291;71191;-86
2023/07/27 02:16:24;;;;;;;;;;;;;;;11.27;57.26;100419.77;105007;1291;61970;-87
2023/07/27 02:19:15;;;;;;;;;;;;;;;11.20;57.27;100424.23;105048;1291;61987;-87
2023/07/27 02:22:22;;;;;;;;;;;;;;;11.17;57.42;100423.61;104902;1297;75898;-87
2023/07/27 02:25:28;;;;;;;;;;;;;;;11.10;57.46;100420.31;105051;1295;70023;-86
2023/07/27 02:28:34;;;;;;;;;;;;;;;11.10;57.56;100417.90;105061;1291;71336;-87
2023/07/27 02:31:41;;;;;;;;;;;;;;;11.06;57.64;100411.42;105022;1291;62056;-87
2023/07/27 02:34:51;;;;;;;;;;;;;;;11.05;57.70;100417.98;105035;1291;61969;-87
2023/07/27 02:37:54;;;;;;;;;;;;;;;11.04;57.73;100419.91;104877;1291;74725;-86
2023/07/27 02:40:42;;;;;;;;;;;;;;;11.05;57.74;100426.95;105067;1291;68250;-87
2023/07/27 02:43:46;;;;;;;;;;;;;;;11.08;57.70;100427.59;104999;1291;73279;-86
2023/07/27 02:46:52;;;;;;;;;;;;;;;11.09;57.81;100432.06;104904;1291;60233;-87
2023/07/27 02:50:15;;;;;;;;;;;;;;;11.08;57.89;100426.73;105003;1291;60204;-86
2023/07/27 02:53:21;;;;;;;;;;;;;;;11.09;57.93;100426.02;104879;1295;76886;-87
2023/07/27 02:56:47;;;;;;;;;;;;;;;11.07;57.99;100433.31;105035;1291;67184;-87
2023/07/27 02:59:55;;;;;;;;;;;;;;;11.05;58.04;100432.66;105094;1291;74061;-87
2023/07/27 03:03:01;;;;;;;;;;;;;;;10.97;58.15;100431.43;105031;1291;60795;-86
2023/07/27 03:06:27;;;;;;;;;;;;;;;10.90;58.34;100434.38;105090;1291;61929;-87
2023/07/27 03:09:34;;;;;;;;;;;;;;;10.91;58.39;100428.65;105063;1291;75173;-88
2023/07/27 03:12:45;;;;;;;;;;;;;;;10.95;58.45;100432.34;105082;1291;68506;-87
2023/07/27 03:15:43;;;;;;;;;;;;;;;11.01;58.44;100431.88;105069;1291;70409;-87
2023/07/27 03:18:57;;;;;;;;;;;;;;;11.03;58.48;100433.55;105141;1291;59432;-87
2023/07/27 03:22:22;;;;;;;;;;;;;;;11.01;58.45;100427.23;105071;1291;61857;-87
2023/07/27 03:25:48;;;;;;;;;;;;;;;11.01;58.73;100429.46;105101;1291;73957;-88
2023/07/27 03:28:55;;;;;;;;;;;;;;;11.05;58.83;100439.21;105040;1295;68272;-87
2023/07/27 03:32:21;;;;;;;;;;;;;;;11.10;58.99;100430.99;105087;1291;74021;-88
2023/07/27 03:35:47;;;;;;;;;;;;;;;11.22;59.00;100434.71;105106;1291;62115;-88
2023/07/27 03:39:13;;;;;;;;;;;;;;;11.34;59.10;100435.83;105105;1292;65138;-88
2023/07/27 03:42:39;;;;;;;;;;;;;;;11.42;59.19;100442.72;105132;1296;75773;-88
2023/07/27 03:46:05;;;;;;;;;;;;;;;11.54;59.33;100436.56;105074;1291;67653;-88
2023/07/27 03:49:31;;;;;;;;;;;;;;;11.63;59.42;100432.21;105082;1291;74054;-88
2023/07/27 03:52:38;;;;;;;;;;;;;;;11.75;59.41;100442.15;105075;1292;60210;-87
2023/07/27 03:56:05;;;;;;;;;;;;;;;11.87;59.56;100440.14;105070;1291;62117;-88
2023/07/27 03:59:30;;;;;;;;;;;;;;;11.98;59.52;100439.69;105047;1291;74990;-87
2023/07/27 04:02:56;;;;;;;;;;;;;;;12.06;59.68;100438.09;105055;1295;70086;-87
2023/07/27 04:06:22;;;;;;;;;;;;;;;12.10;59.77;100440.77;105085;1291;71399;-88
2023/07/27 04:09:29;;;;;;;;;;;;;;;12.14;59.92;100437.37;104969;1293;62086;-88
2023/07/27 04:12:55;;;;;;;;;;;;;;;12.23;59.91;100440.41;105042;1292;62629;-87
2023/07/27 04:16:01;;;;;;;;;;;;;;;12.34;59.91;100440.50;104966;1291;74064;-87
2023/07/27 04:19:08;;;;;;;;;;;;;;;12.39;60.06;100440.04;105113;1291;67874;-88
2023/07/27 04:22:22;;;;;;;;;;;;;;;12.45;60.05;100441.59;105058;1291;74026;-88
2023/07/27 04:25:47;;;;;;;;;;;;;;;12.53;60.15;100445.13;105063;1291;61260;-88
2023/07/27 04:29:13;;;;;;;;;;;;;;;12.63;60.24;100448.17;105025;1294;60373;-88
2023/07/27 04:32:40;;;;;;;;;;;;;;;12.70;60.25;100442.79;105023;1292;75364;-88
2023/07/27 04:36:05;;;;;;;;;;;;;;;12.79;60.48;100447.20;105047;1291;69945;-88
2023/07/27 04:39:32;;;;;;;;;;;;;;;12.84;60.52;100440.15;105091;1295;71290;-88
2023/07/27 04:42:58;;;;;;;;;;;;;;;12.96;60.55;100437.39;105029;1291;62412;-88
2023/07/27 04:46:24;;;;;;;;;;;;;;;13.16;60.55;100434.35;105099;1291;60607;-88
2023/07/27 04:49:50;;;;;;;;;;;;;;;13.34;60.45;100439.06;105046;1291;75266;-88
2023/07/27 04:53:17;;;;;;;;;;;;;;;13.45;60.50;100438.37;104475;1300;71128;-88
2023/07/27 04:56:32;;;;;;;;;;;;;;;13.58;60.62;100435.34;104447;1300;73978;-89
2023/07/27 04:59:58;;;;;;;;;;;;;;;13.72;60.61;100436.65;104438;1299;61193;-88
2023/07/27 05:03:24;;;;;;;;;;;;;;;13.89;60.67;100441.79;104478;1300;61840;-88
2023/07/27 05:06:50;;;;;;;;;;;;;;;14.02;60.57;100441.56;104405;1300;74066;-88
2023/07/27 05:10:16;;;;;;;;;;;;;;;14.11;60.55;100448.69;104417;1300;67368;-88
2023/07/27 05:13:38;;;;;;;;;;;;;;;14.23;60.57;100445.50;104215;1302;72018;-88
2023/07/27 05:17:04;;;;;;;;;;;;;;;14.37;60.52;100443.82;104165;1303;61942;-88
2023/07/27 05:20:30;;;;;;;;;;;;;;;14.51;60.59;100444.92;104088;1305;63603;-88
2023/07/27 05:23:38;;;;;;;;;;;;;;;14.66;60.48;100438.97;104083;1306;75018;-87
2023/07/27 05:27:04;;;;;;;;;;;;;;;15.01;60.64;100435.10;89626;1305;20001513;-88
2023/07/27 05:30:11;;;;;;;;;;;;;;;15.44;60.61;100437.98;104189;1300;69320;-88
2023/07/27 05:33:37;;;;;;;;;;;;;;;15.82;60.45;100443.22;104423;1300;71286;-88
2023/07/27 05:37:03;;;;;;;;;;;;;;;16.48;60.34;100437.50;104374;1299;62430;-88
2023/07/27 05:40:29;;;;;;;;;;;;;;;17.14;60.01;100440.61;104316;1302;61927;-88
2023/07/27 05:43:55;;;;;;;;;;;;;;;17.76;59.74;100437.02;104294;1298;74061;-88
2023/07/27 05:47:21;;;;;;;;;;;;;;;18.07;59.38;100442.44;104390;1300;67410;-87
2023/07/27 05:50:44;;;;;;;;;;;;;;;18.19;59.38;100441.29;104592;1294;72224;-88
2023/07/27 05:54:10;;;;;;;;;;;;;;;18.42;59.03;100442.58;104769;1297;61703;-87
2023/07/27 05:57:36;;;;;;;;;;;;;;;18.49;59.10;100446.57;104784;1294;61957;-88
2023/07/27 06:01:01;;;;;;;;;;;;;;;18.62;58.96;100449.05;104783;1298;74014;-87
2023/07/27 06:04:28;;;;;;;;;;;;;;;19.13;59.16;100453.13;104760;1297;70014;-88
2023/07/27 06:07:35;;;;;;;;;;;;;;;19.70;58.75;100451.42;104857;1294;71395;-88
2023/07/27 06:11:01;;;;;;;;;;;;;;;20.42;58.69;100449.64;105070;1295;62092;-87
2023/07/27 06:14:26;;;;;;;;;;;;;;;21.13;58.07;100456.18;104921;1295;62085;-88
2023/07/27 06:17:33;;;;;;;;;;;;;;;21.60;57.83;100455.65;105138;1291;74230;-88
2023/07/27 06:20:41;;;;;;;;;;;;;;;22.11;57.54;100453.31;105327;1295;67426;-88
2023/07/27 06:24:08;;;;;;;;;;;;;;;22.75;57.22;100453.88;105258;1291;70793;-87
2023/07/27 06:27:32;;;;;;;;;;;;;;;23.53;56.82;100450.96;105314;1292;60564;-88
2023/07/27 06:30:38;;;;;;;;;;;;;;;24.21;56.53;100454.15;105856;1291;59749;-88
2023/07/27 06:34:04;;;;;;;;;;;;;;;25.08;56.21;100445.52;105320;1292;74170;-89
2023/07/27 06:37:30;;;;;;;;;;;;;;;25.91;55.89;100446.55;105275;1295;67556;-88
2023/07/27 06:40:40;;;;;;;;;;;;;;;26.67;55.32;100447.48;105203;1295;71414;-88
2023/07/27 06:44:05;;;;;;;;;;;;;;;26.96;55.34;100450.63;105146;1292;62050;-88
2023/07/27 06:52:36;;;;;;;;;;;;;;;28.41;54.35;100441.73;105295;1291;67297;-90
2023/07/27 06:55:59;;;;;;;;;;;;;;;29.28;53.49;100441.39;104642;1299;71332;-88
2023/07/27 06:59:25;;;;;;;;;;;;;;;30.30;53.03;100439.33;104718;1299;62155;-89
2023/07/27 07:02:50;;;;;;;;;;;;;;;31.14;52.11;100435.42;104620;1300;60215;-88
2023/07/27 07:06:16;;;;;;;;;;;;;;;31.77;51.50;100431.27;100818;1300;5177611;-88
2023/07/27 07:09:39;;;;;;;;;;;;;;;32.60;51.09;100437.09;104585;1300;70030;-88
2023/07/27 07:13:05;;;;;;;;;;;;;;;32.82;50.58;100437.84;104635;1299;71100;-89
2023/07/27 07:16:31;;;;;;;;;;;;;;;32.71;50.85;100440.95;104620;1300;62126;-88
2023/07/27 07:19:37;;;;;;;;;;;;;;;33.40;50.27;100439.61;104568;1300;62071;-88
2023/07/27 07:22:44;;;;;;;;;;;;;;;34.20;49.62;100443.83;104519;1299;74245;-88
2023/07/27 07:25:53;;;;;;;;;;;;;;;34.97;48.27;100437.06;104621;1300;68540;-88
2023/07/27 07:28:40;;;;;;;;;;;;;;;35.13;47.75;100439.63;104557;1298;72305;-88
2023/07/27 07:32:06;;;;;;;;;;;;;;;35.28;47.68;100439.71;104700;1291;62064;-88
2023/07/27 07:35:13;;;;;;;;;;;;;;;35.55;46.39;100444.36;105247;1291;62036;-90
2023/07/27 07:38:35;;;;;;;;;;;;;;;34.43;47.02;100438.04;105279;1291;74165;-89
2023/07/27 07:41:22;;;;;;;;;;;;;;;34.16;46.74;100437.52;105041;1291;67177;-86
2023/07/27 07:44:08;;;;;;;;;;;;;;;34.41;45.75;100435.81;105066;1291;72619;-87
2023/07/27 07:46:54;;;;;;;;;;;;;;;33.73;45.53;100433.30;104983;1294;61812;-86
2023/07/27 07:49:41;;;;;;;;;;;;;;;33.01;45.29;100431.64;105914;1291;59821;-87
2023/07/27 07:52:27;;;;;;;;;;;;;;;33.00;44.81;100432.57;105109;1291;74058;-86
2023/07/27 07:55:13;;;;;;;;;;;;;;;34.47;43.72;100437.77;105147;1294;67211;-86
2023/07/27 07:57:59;;;;;;;;;;;;;;;35.86;42.38;100433.33;105117;1296;72868;-85
2023/07/27 08:00:45;;;;;;;;;;;;;;;37.21;41.79;100430.55;105191;1291;61820;-86
2023/07/27 08:03:31;;;;;;;;;;;;;;;38.15;41.29;100429.25;105164;1291;60322;-86
2023/07/27 08:06:17;;;;;;;;;;;;;;;37.88;41.06;100424.57;104945;1291;74586;-86
2023/07/27 08:09:03;;;;;;;;;;;;;;;38.48;40.91;100425.19;105003;1291;70065;-86
2023/07/27 08:11:49;;;;;;;;;;;;;;;38.10;40.81;100418.05;105123;1291;72135;-86
2023/07/27 08:14:36;;;;;;;;;;;;;;;38.44;40.29;100420.99;105151;1291;59558;-87
2023/07/27 08:17:22;;;;;;;;;;;;;;;39.55;40.08;100420.11;105133;1291;59939;-87
2023/07/27 08:20:09;;;;;;;;;;;;;;;40.57;39.26;100420.98;105236;1291;74166;-87
2023/07/27 08:22:55;;;;;;;;;;;;;;;41.31;38.57;100414.98;105146;1291;67644;-87
2023/07/27 08:25:42;;;;;;;;;;;;;;;41.43;38.16;100417.56;105137;1291;71773;-87
2023/07/27 08:28:29;;;;;;;;;;;;;;;40.41;37.90;100411.05;105181;1294;60475;-86
2023/07/27 08:31:15;;;;;;;;;;;;;;;40.39;38.22;100406.77;105094;1291;60772;-87
2023/07/27 08:34:01;;;;;;;;;;;;;;;41.52;37.47;100404.34;105077;1291;75547;-87
2023/07/27 08:36:50;;;;;;;;;;;;;;;42.26;35.99;100402.93;105086;1291;67409;-87
2023/07/27 08:39:37;;;;;;;;;;;;;;;42.47;35.66;100401.83;105087;1296;71224;-87
2023/07/27 08:42:23;;;;;;;;;;;;;;;43.06;35.52;100401.38;105106;1291;60324;-87
2023/07/27 08:45:12;;;;;;;;;;;;;;;42.99;35.24;100396.88;105103;1291;60185;-87
2023/07/27 08:47:59;;;;;;;;;;;;;;;43.18;34.99;100391.21;105132;1291;74175;-87
2023/07/27 08:50:46;;;;;;;;;;;;;;;43.81;34.17;100389.52;105045;1291;68058;-87
2023/07/27 08:53:32;;;;;;;;;;;;;;;43.78;33.63;100386.48;105090;1291;71338;-87
2023/07/27 08:56:19;;;;;;;;;;;;;;;43.57;33.40;100386.58;105206;1291;61926;-87
2023/07/27 08:59:05;;;;;;;;;;;;;;;42.29;33.04;100382.79;105210;1291;60087;-87
2023/07/27 09:01:51;;;;;;;;;;;;;;;40.64;32.49;100375.79;105196;1291;75675;-87
2023/07/27 09:04:38;;;;;;;;;;;;;;;37.95;32.41;100369.64;105256;1291;71367;-87
2023/07/27 09:07:24;;;;;;;;;;;;;;;35.85;32.52;100361.67;105098;1291;71386;-87
2023/07/27 09:10:10;;;;;;;;;;;;;;;34.27;32.51;100360.96;105266;1294;61873;-87
2023/07/27 09:13:00;;;;;;;;;;;;;;;32.98;32.26;100355.98;105141;1292;60312;-86
2023/07/27 09:15:47;;;;;;;;;;;;;;;31.72;31.26;100351.60;105128;1291;75362;-86
2023/07/27 09:18:54;;;;;;;;;;;;;;;30.59;31.40;100350.91;105106;1291;71371;-86
2023/07/27 09:21:44;;;;;;;;;;;;;;;29.60;31.31;100350.45;105265;1291;72515;-86
2023/07/27 09:24:32;;;;;;;;;;;;;;;28.76;31.27;100344.54;105134;1291;61898;-86
2023/07/27 09:27:20;;;;;;;;;;;;;;;28.04;31.20;100344.88;105176;1291;60091;-85
2023/07/27 09:30:07;;;;;;;;;;;;;;;27.46;31.13;100345.65;105643;1291;76130;-85
2023/07/27 09:32:53;;;;;;;;;;;;;;;26.90;31.01;100345.70;105215;1291;67705;-85
2023/07/27 09:35:40;;;;;;;;;;;;;;;26.45;31.13;100345.65;105144;1291;71297;-85
2023/07/27 09:38:27;;;;;;;;;;;;;;;26.04;31.06;100347.58;105204;1291;62089;-87
2023/07/27 09:41:21;;;;;;;;;;;;;;;25.60;31.01;100343.10;106014;1291;60132;-86
2023/07/27 09:44:11;;;;;;;;;;;;;;;25.18;31.09;100336.52;105970;1291;74221;-87
2023/07/27 09:46:57;;;;;;;;;;;;;;;24.85;31.07;100341.52;105821;1291;67301;-87
2023/07/27 09:49:48;;;;;;;;;;;;;;;24.59;31.22;100339.32;105142;1291;71374;-87
2023/07/27 09:52:39;;;;;;;;;;;;;;;24.34;31.43;100338.48;105062;1291;60444;-87
2023/07/27 09:55:29;;;;;;;;;;;;;;;24.13;31.49;100334.15;105342;1291;59526;-87
2023/07/27 09:58:15;;;;;;;;;;;;;;;23.96;31.65;100330.90;105269;1291;76748;-87
2023/07/27 10:01:02;;;;;;;;;;;;;;;23.74;31.63;100330.60;105206;1291;68379;-87
2023/07/27 10:03:48;;;;;;;;;;;;;;;23.57;31.78;100331.57;105168;1291;71207;-87
2023/07/27 10:06:35;;;;;;;;;;;;;;;23.51;31.85;100329.50;105159;1297;62162;-87
2023/07/27 10:09:22;;;;;;;;;;;;;;;23.43;31.98;100326.03;105149;1294;60248;-87
2023/07/27 10:12:08;;;;;;;;;;;;;;;23.33;32.09;100323.33;105173;1291;74109;-87
2023/07/27 10:15:13;;;;;;;;;;;;;;;23.21;32.10;100318.04;105094;1291;66707;-86
2023/07/27 10:18:00;;;;;;;;;;;;;;;23.05;32.30;100316.23;105142;1292;73037;-86
2023/07/27 10:20:47;;;;;;;;;;;;;;;22.95;32.40;100313.94;105127;1291;62159;-86
2023/07/27 10:24:14;;;;;;;;;;;;;;;22.88;32.76;100312.54;105263;1291;60669;-86
2023/07/27 10:27:08;;;;;;;;;;;;;;;22.85;32.62;100310.86;104803;1300;76078;-86
2023/07/27 10:30:14;;;;;;;;;;;;;;;22.86;32.77;100312.04;104545;1300;70051;-86
2023/07/27 10:33:06;;;;;;;;;;;;;;;22.80;32.80;100309.10;104667;1300;76891;-86
2023/07/27 10:36:06;;;;;;;;;;;;;;;22.78;32.93;100306.95;104485;1300;62008;-86
2023/07/27 10:38:53;;;;;;;;;;;;;;;22.77;33.16;100304.54;104976;1299;59920;-85
2023/07/27 10:41:56;;;;;;;;;;;;;;;22.76;33.21;100304.73;104608;1299;75570;-86
2023/07/27 10:44:45;;;;;;;;;;;;;;;22.80;33.15;100303.65;104669;1299;67018;-86
2023/07/27 10:47:38;;;;;;;;;;;;;;;22.86;33.30;100300.40;104594;1299;72844;-86
2023/07/27 10:50:25;;;;;;;;;;;;;;;23.00;33.37;100299.72;105182;1300;60803;-86
2023/07/27 10:53:12;;;;;;;;;;;;;;;23.15;33.59;100303.91;104566;1301;60832;-86
2023/07/27 10:55:58;;;;;;;;;;;;;;;23.29;33.55;100298.59;104529;1298;74330;-85
2023/07/27 10:58:44;;;;;;;;;;;;;;;23.34;33.69;100295.77;104584;1300;67316;-85
2023/07/27 11:01:28;;;;;;;;;;;;;;;23.42;33.88;100290.58;104609;1300;72596;-86
2023/07/27 11:04:34;;;;;;;;;;;;;;;23.53;33.91;100288.56;104779;1293;60273;-89
2023/07/27 11:07:46;;;;;;;;;;;;;;;23.61;33.91;100287.79;105275;1291;61965;-88
2023/07/27 11:13:11;;;;;;;;;;;;;;;23.65;34.01;100282.73;105551;1289;66533;-89
2023/07/27 11:16:37;;;;;;;;;;;;;;;23.68;34.09;100274.20;105288;1291;71405;-89
2023/07/27 11:20:03;;;;;;;;;;;;;;;23.76;34.37;100273.81;105182;1289;60011;-88
2023/07/27 11:23:05;;;;;;;;;;;;;;;23.84;34.44;100270.20;105420;1290;61846;-86
2023/07/27 11:26:09;;;;;;;;;;;;;;;23.93;34.44;100270.92;105412;1291;73991;-87
2023/07/27 11:29:13;;;;;;;;;;;;;;;24.00;34.43;100263.48;105438;1289;68091;-87
2023/07/27 11:32:00;;;;;;;;;;;;;;;24.06;34.59;100258.77;105366;1289;70850;-86
2023/07/27 11:34:44;;;;;;;;;;;;;;;24.13;34.62;100252.44;105459;1292;60370;-86
2023/07/27 11:37:32;;;;;;;;;;;;;;;24.15;34.57;100245.02;105230;1291;64270;-86
2023/07/27 11:40:39;;;;;;;;;;;;;;;24.18;34.80;100252.52;105326;1291;74725;-86
2023/07/27 11:43:43;;;;;;;;;;;;;;;24.24;34.85;100251.20;105508;1290;67603;-87
2023/07/27 11:46:39;;;;;;;;;;;;;;;24.27;34.74;100244.11;105369;1290;71635;-87
2023/07/27 11:49:27;;;;;;;;;;;;;;;24.24;34.73;100235.54;105259;1290;62001;-86
2023/07/27 11:52:11;;;;;;;;;;;;;;;24.23;34.90;100232.24;105301;1292;60338;-87
2023/07/27 11:54:56;;;;;;;;;;;;;;;24.25;34.87;100227.14;105313;1291;75180;-86
2023/07/27 11:57:50;;;;;;;;;;;;;;;24.20;34.88;100229.31;105991;1291;68553;-86
2023/07/27 12:00:34;;;;;;;;;;;;;;;24.21;34.98;100228.02;105413;1291;71210;-86
2023/07/27 12:03:24;;;;;;;;;;;;;;;24.27;35.03;100226.16;105192;1290;59878;-86
2023/07/27 12:06:09;;;;;;;;;;;;;;;24.23;34.91;100219.56;105977;1291;59898;-86
2023/07/27 12:08:54;;;;;;;;;;;;;;;24.19;35.02;100229.94;105918;1292;74685;-86
2023/07/27 12:11:39;;;;;;;;;;;;;;;24.07;34.99;100225.94;106007;1291;68263;-86
2023/07/27 12:14:31;;;;;;;;;;;;;;;23.94;35.08;100225.17;105468;1292;71224;-86
2023/07/27 12:17:16;;;;;;;;;;;;;;;23.90;35.12;100223.40;105345;1290;60664;-85
2023/07/27 12:20:09;;;;;;;;;;;;;;;23.87;35.22;100218.53;105342;1291;61999;-86
2023/07/27 12:23:01;;;;;;;;;;;;;;;23.86;35.04;100206.86;105329;1292;74114;-86
2023/07/27 12:25:58;;;;;;;;;;;;;;;23.92;35.23;100208.25;105323;1291;67373;-86
2023/07/27 12:28:50;;;;;;;;;;;;;;;23.91;35.29;100204.52;105409;1292;72668;-85
2023/07/27 12:31:45;;;;;;;;;;;;;;;23.92;35.28;100201.73;105269;1295;62294;-86
2023/07/27 12:34:31;;;;;;;;;;;;;;;23.95;35.30;100195.70;105355;1291;60917;-86
2023/07/27 12:37:16;;;;;;;;;;;;;;;23.95;35.37;100196.05;105367;1291;76759;-85
2023/07/27 12:40:03;;;;;;;;;;;;;;;23.94;35.36;100189.27;105249;1291;67193;-86
2023/07/27 12:42:55;;;;;;;;;;;;;;;23.98;35.47;100185.22;105257;1292;74579;-86
2023/07/27 12:45:43;;;;;;;;;;;;;;;24.04;35.38;100180.05;105346;1290;59951;-86
2023/07/27 12:48:28;;;;;;;;;;;;;;;24.09;35.42;100180.34;105340;1292;61936;-86
2023/07/27 12:51:13;;;;;;;;;;;;;;;24.05;35.38;100183.13;105348;1291;74041;-85
2023/07/27 12:53:57;;;;;;;;;;;;;;;24.02;35.54;100182.48;105307;1291;68350;-86
2023/07/27 12:56:43;;;;;;;;;;;;;;;24.03;35.49;100177.13;105359;1292;72540;-86
2023/07/27 12:59:35;;;;;;;;;;;;;;;24.01;35.58;100173.96;105381;1290;62105;-86
2023/07/27 13:02:20;;;;;;;;;;;;;;;24.04;35.70;100172.11;105271;1290;60538;-85
2023/07/27 13:05:06;;;;;;;;;;;;;;;24.08;35.62;100163.13;105286;1290;75368;-86
2023/07/27 13:07:51;;;;;;;;;;;;;;;24.07;35.52;100167.14;105295;1292;67662;-86
2023/07/27 13:10:35;;;;;;;;;;;;;;;24.07;35.65;100163.23;105296;1291;72116;-85
2023/07/27 13:13:22;;;;;;;;;;;;;;;24.02;35.65;100161.46;105368;1290;61868;-86
2023/07/27 13:16:07;;;;;;;;;;;;;;;24.04;35.59;100156.06;105330;1291;62000;-86
2023/07/27 13:18:52;;;;;;;;;;;;;;;24.05;35.63;100157.39;105187;1291;75286;-86
2023/07/27 13:21:37;;;;;;;;;;;;;;;24.01;35.60;100151.02;105312;1291;67503;-85
2023/07/27 13:24:21;;;;;;;;;;;;;;;23.96;35.70;100155.88;105177;1294;71187;-85
2023/07/27 13:27:05;;;;;;;;;;;;;;;23.94;35.73;100149.14;105260;1291;60110;-86
2023/07/27 13:29:50;;;;;;;;;;;;;;;23.97;35.68;100150.25;105176;1291;60077;-86
2023/07/27 13:32:43;;;;;;;;;;;;;;;24.03;35.89;100148.23;105272;1290;75308;-86
2023/07/27 13:35:31;;;;;;;;;;;;;;;24.05;35.70;100145.98;105103;1294;67659;-86
2023/07/27 13:38:17;;;;;;;;;;;;;;;24.04;35.68;100146.39;105373;1291;71249;-86
2023/07/27 13:41:01;;;;;;;;;;;;;;;24.04;35.83;100145.66;105199;1297;62374;-86
2023/07/27 13:43:45;;;;;;;;;;;;;;;24.03;35.91;100145.05;105169;1294;59855;-85
2023/07/27 13:46:34;;;;;;;;;;;;;;;23.98;35.83;100144.55;105372;1290;74720;-86
2023/07/27 13:49:20;;;;;;;;;;;;;;;23.94;35.84;100143.10;105395;1291;67883;-86
2023/07/27 13:52:13;;;;;;;;;;;;;;;23.89;35.87;100141.84;105171;1291;71864;-85
2023/07/27 13:54:57;;;;;;;;;;;;;;;23.83;35.84;100137.58;105117;1291;60171;-85
2023/07/27 13:57:42;;;;;;;;;;;;;;;23.73;35.89;100139.13;105079;1291;60567;-85
2023/07/27 14:00:27;;;;;;;;;;;;;;;23.68;36.07;100132.70;105206;1290;75083;-85
2023/07/27 14:03:11;;;;;;;;;;;;;;;23.66;36.03;100135.15;105342;1291;68596;-85
2023/07/27 14:05:55;;;;;;;;;;;;;;;23.62;36.08;100134.27;105166;1291;71950;-86
2023/07/27 14:08:40;;;;;;;;;;;;;;;23.51;36.06;100135.06;105213;1291;62063;-86
2023/07/27 14:11:24;;;;;;;;;;;;;;;23.40;36.17;100132.77;105217;1291;59931;-85
2023/07/27 14:14:08;;;;;;;;;;;;;;;23.29;36.05;100129.23;105257;1290;73996;-85
2023/07/27 14:16:52;;;;;;;;;;;;;;;23.22;36.23;100128.41;105086;1291;70079;-85
2023/07/27 14:19:38;;;;;;;;;;;;;;;23.16;36.22;100125.88;105284;1291;72227;-86
2023/07/27 14:22:22;;;;;;;;;;;;;;;23.09;36.23;100127.73;105150;1291;62066;-86
2023/07/27 14:25:27;;;;;;;;;;;;;;;23.03;36.29;100126.63;105201;1291;60067;-86
2023/07/27 14:28:31;;;;;;;;;;;;;;;23.00;36.31;100125.27;105255;1290;77018;-86
2023/07/27 14:31:15;;;;;;;;;;;;;;;22.99;36.36;100121.88;105252;1292;68848;-86
2023/07/27 14:34:03;;;;;;;;;;;;;;;22.98;36.42;100119.81;105249;1292;71406;-85
2023/07/27 14:36:49;;;;;;;;;;;;;;;23.00;36.54;100116.33;105518;1291;62104;-86
2023/07/27 14:39:37;;;;;;;;;;;;;;;23.04;36.42;100118.46;105380;1292;62087;-86
2023/07/27 14:42:23;;;;;;;;;;;;;;;23.06;36.44;100117.80;105255;1291;74005;-85
2023/07/27 14:45:08;;;;;;;;;;;;;;;23.10;36.57;100120.29;105176;1289;67487;-85
2023/07/27 14:47:52;;;;;;;;;;;;;;;23.12;36.57;100122.62;105290;1292;71586;-85
2023/07/27 14:50:37;;;;;;;;;;;;;;;23.10;36.61;100115.95;105285;1291;61881;-85
2023/07/27 14:53:22;;;;;;;;;;;;;;;23.12;36.64;100110.48;105130;1291;62089;-86
2023/07/27 14:56:08;;;;;;;;;;;;;;;23.16;36.73;100108.78;105257;1290;76053;-86
2023/07/27 14:58:55;;;;;;;;;;;;;;;23.21;36.66;100110.02;105250;1291;67453;-85
2023/07/27 15:01:39;;;;;;;;;;;;;;;23.27;36.85;100105.64;105160;1290;71320;-85
2023/07/27 15:04:26;;;;;;;;;;;;;;;23.27;36.64;100104.23;105136;1292;61986;-85
2023/07/27 15:07:13;;;;;;;;;;;;;;;23.28;36.75;100100.13;105173;1290;62941;-85
2023/07/27 15:10:07;;;;;;;;;;;;;;;23.26;36.66;100096.58;105211;1291;75379;-87
2023/07/27 15:13:10;;;;;;;;;;;;;;;23.25;36.89;100095.78;105210;1290;68952;-86
2023/07/27 15:15:56;;;;;;;;;;;;;;;23.25;37.02;100097.15;105198;1291;72863;-86
2023/07/27 15:18:51;;;;;;;;;;;;;;;23.24;37.00;100099.23;105158;1292;62197;-86